sensor_id;sensor_type;location;lat;lon;timestamp;P1;durP1;ratioP1;P2;durP2;ratioP2
37365;SDS011;23239;51.504;7.456;2023-05-31T00:00:00;15.9;;;11.8;;
37365;SDS011;23239;51.504;7.456;2023-05-31T00:01:00;15.9;;;11.8;;
37365;SDS011;23239;51.504;7.456;2023-05-31T00:02:00;15.5;;;11.3;;
37365;SDS011;23239;51.504;7.456;2023-05-31T00:03:00;15.5;;;11.3;;
37365;SDS011;23239;51.504;7.456;2023-05-31T00:04:00;15.5;;;11.3;;
37365;SDS011;23239;51.504;7.456;2023-05-31T00:05:00;15.5;;;11.3;;
37365;SDS011;23239;51.504;7.456;2023-05-31T00:06:00;15.5;;;11.3;;
37365;SDS011;23239;51.504;7.456;2023-05-31T00:07:00;14.9;;;11.0;;
37365;SDS011;23239;51.504;7.456;2023-05-31T00:08:00;14.9;;;11.0;;
37365;SDS011;23239;51.504;7.456;2023-05-31T00:09:00;14.9;;;11.0;;
37365;SDS011;23239;51.504;7.456;2023-05-31T00:10:00;14.9;;;11.0;;
37365;SDS011;23239;51.504;7.456;2023-05-31T00:11:00;14.9;;;11.0;;
37365;SDS011;23239;51.504;7.456;2023-05-31T00:12:00;15.0;;;11.6;;
37365;SDS011;23239;51.504;7.456;2023-05-31T00:13:00;15.0;;;11.6;;
37365;SDS011;23239;51.504;7.456;2023-05-31T00:14:00;15.0;;;11.6;;
37365;SDS011;23239;51.504;7.456;2023-05-31T00:15:00;15.0;;;11.6;;
37365;SDS011;23239;51.504;7.456;2023-05-31T00:16:00;15.0;;;11.6;;
37365;SDS011;23239;51.504;7.456;2023-05-31T00:17:00;13.6;;;11.4;;
37365;SDS011;23239;51.504;7.456;2023-05-31T00:18:00;13.6;;;11.4;;
37365;SDS011;23239;51.504;7.456;2023-05-31T00:19:00;13.6;;;11.4;;
37365;SDS011;23239;51.504;7.456;2023-05-31T00:20:00;13.6;;;11.4;;
37365;SDS011;23239;51.504;7.456;2023-05-31T00:21:00;13.6;;;11.4;;
37365;SDS011;23239;51.504;7.456;2023-05-31T00:22:00;15.2;;;11.6;;
37365;SDS011;23239;51.504;7.456;2023-05-31T00:23:00;15.2;;;11.6;;
37365;SDS011;23239;51.504;7.456;2023-05-31T00:24:00;15.2;;;11.6;;
37365;SDS011;23239;51.504;7.456;2023-05-31T00:25:00;15.2;;;11.6;;
37365;SDS011;23239;51.504;7.456;2023-05-31T00:26:00;15.2;;;11.6;;
37365;SDS011;23239;51.504;7.456;2023-05-31T00:27:00;16.6;;;11.5;;
37365;SDS011;23239;51.504;7.456;2023-05-31T00:28:00;16.6;;;11.5;;
37365;SDS011;23239;51.504;7.456;2023-05-31T00:29:00;16.6;;;11.5;;
37365;SDS011;23239;51.504;7.456;2023-05-31T00:30:00;16.6;;;11.5;;
37365;SDS011;23239;51.504;7.456;2023-05-31T00:31:00;16.6;;;11.5;;
37365;SDS011;23239;51.504;7.456;2023-05-31T00:32:00;15.1;;;11.2;;
37365;SDS011;23239;51.504;7.456;2023-05-31T00:33:00;15.1;;;11.2;;
37365;SDS011;23239;51.504;7.456;2023-05-31T00:34:00;15.1;;;11.2;;
37365;SDS011;23239;51.504;7.456;2023-05-31T00:35:00;15.1;;;11.2;;
37365;SDS011;23239;51.504;7.456;2023-05-31T00:36:00;15.1;;;11.2;;
37365;SDS011;23239;51.504;7.456;2023-05-31T00:37:00;13.9;;;11.1;;
37365;SDS011;23239;51.504;7.456;2023-05-31T00:38:01;13.9;;;11.1;;
37365;SDS011;23239;51.504;7.456;2023-05-31T00:39:00;13.9;;;11.1;;
37365;SDS011;23239;51.504;7.456;2023-05-31T00:40:00;13.9;;;11.1;;
37365;SDS011;23239;51.504;7.456;2023-05-31T00:41:00;13.9;;;11.1;;
37365;SDS011;23239;51.504;7.456;2023-05-31T00:42:00;15.6;;;11.5;;
37365;SDS011;23239;51.504;7.456;2023-05-31T00:43:00;15.6;;;11.5;;
37365;SDS011;23239;51.504;7.456;2023-05-31T00:44:00;15.6;;;11.5;;
37365;SDS011;23239;51.504;7.456;2023-05-31T00:45:00;15.6;;;11.5;;
37365;SDS011;23239;51.504;7.456;2023-05-31T00:46:00;15.6;;;11.5;;
37365;SDS011;23239;51.504;7.456;2023-05-31T00:47:00;14.9;;;11.8;;
37365;SDS011;23239;51.504;7.456;2023-05-31T00:48:00;14.9;;;11.8;;
37365;SDS011;23239;51.504;7.456;2023-05-31T00:49:00;14.9;;;11.8;;
37365;SDS011;23239;51.504;7.456;2023-05-31T00:50:00;14.9;;;11.8;;
37365;SDS011;23239;51.504;7.456;2023-05-31T00:51:00;14.9;;;11.8;;
37365;SDS011;23239;51.504;7.456;2023-05-31T00:52:00;15.4;;;11.9;;
37365;SDS011;23239;51.504;7.456;2023-05-31T00:53:00;15.4;;;11.9;;
37365;SDS011;23239;51.504;7.456;2023-05-31T00:54:00;15.4;;;11.9;;
37365;SDS011;23239;51.504;7.456;2023-05-31T00:55:00;15.4;;;11.9;;
37365;SDS011;23239;51.504;7.456;2023-05-31T00:56:00;15.4;;;11.9;;
37365;SDS011;23239;51.504;7.456;2023-05-31T00:57:00;13.9;;;11.2;;
37365;SDS011;23239;51.504;7.456;2023-05-31T00:58:00;13.9;;;11.2;;
37365;SDS011;23239;51.504;7.456;2023-05-31T00:59:00;13.9;;;11.2;;
37365;SDS011;23239;51.504;7.456;2023-05-31T01:00:00;13.9;;;11.2;;
37365;SDS011;23239;51.504;7.456;2023-05-31T01:01:00;13.9;;;11.2;;
37365;SDS011;23239;51.504;7.456;2023-05-31T01:02:00;14.7;;;11.3;;
37365;SDS011;23239;51.504;7.456;2023-05-31T01:03:00;14.7;;;11.3;;
37365;SDS011;23239;51.504;7.456;2023-05-31T01:04:00;14.7;;;11.3;;
37365;SDS011;23239;51.504;7.456;2023-05-31T01:05:00;14.7;;;11.3;;
37365;SDS011;23239;51.504;7.456;2023-05-31T01:06:00;14.7;;;11.3;;
37365;SDS011;23239;51.504;7.456;2023-05-31T01:07:00;14.7;;;11.2;;
37365;SDS011;23239;51.504;7.456;2023-05-31T01:08:00;14.7;;;11.2;;
37365;SDS011;23239;51.504;7.456;2023-05-31T01:09:00;14.7;;;11.2;;
37365;SDS011;23239;51.504;7.456;2023-05-31T01:10:00;14.7;;;11.2;;
37365;SDS011;23239;51.504;7.456;2023-05-31T01:11:02;14.7;;;11.2;;
37365;SDS011;23239;51.504;7.456;2023-05-31T01:12:02;15.7;;;11.4;;
37365;SDS011;23239;51.504;7.456;2023-05-31T01:13:01;15.7;;;11.4;;
37365;SDS011;23239;51.504;7.456;2023-05-31T01:14:01;15.7;;;11.4;;
37365;SDS011;23239;51.504;7.456;2023-05-31T01:15:05;15.7;;;11.4;;
37365;SDS011;23239;51.504;7.456;2023-05-31T01:16:06;15.7;;;11.4;;
37365;SDS011;23239;51.504;7.456;2023-05-31T01:17:02;14.4;;;10.9;;
37365;SDS011;23239;51.504;7.456;2023-05-31T01:18:02;14.4;;;10.9;;
37365;SDS011;23239;51.504;7.456;2023-05-31T01:19:01;14.4;;;10.9;;
37365;SDS011;23239;51.504;7.456;2023-05-31T01:20:00;14.4;;;10.9;;
37365;SDS011;23239;51.504;7.456;2023-05-31T01:21:00;14.4;;;10.9;;
37365;SDS011;23239;51.504;7.456;2023-05-31T01:22:01;14.5;;;11.2;;
37365;SDS011;23239;51.504;7.456;2023-05-31T01:23:03;14.5;;;11.2;;
37365;SDS011;23239;51.504;7.456;2023-05-31T01:24:04;14.5;;;11.2;;
37365;SDS011;23239;51.504;7.456;2023-05-31T01:25:04;14.5;;;11.2;;
37365;SDS011;23239;51.504;7.456;2023-05-31T01:26:05;14.5;;;11.2;;
37365;SDS011;23239;51.504;7.456;2023-05-31T01:27:00;12.8;;;11.1;;
37365;SDS011;23239;51.504;7.456;2023-05-31T01:28:00;12.8;;;11.1;;
37365;SDS011;23239;51.504;7.456;2023-05-31T01:29:00;12.8;;;11.1;;
37365;SDS011;23239;51.504;7.456;2023-05-31T01:30:00;12.8;;;11.1;;
37365;SDS011;23239;51.504;7.456;2023-05-31T01:31:02;12.8;;;11.1;;
37365;SDS011;23239;51.504;7.456;2023-05-31T01:32:00;13.6;;;11.0;;
37365;SDS011;23239;51.504;7.456;2023-05-31T01:33:00;13.6;;;11.0;;
37365;SDS011;23239;51.504;7.456;2023-05-31T01:34:00;13.6;;;11.0;;
37365;SDS011;23239;51.504;7.456;2023-05-31T01:35:00;13.6;;;11.0;;
37365;SDS011;23239;51.504;7.456;2023-05-31T01:36:00;13.6;;;11.0;;
37365;SDS011;23239;51.504;7.456;2023-05-31T01:37:00;17.2;;;11.6;;
37365;SDS011;23239;51.504;7.456;2023-05-31T01:38:00;17.2;;;11.6;;
37365;SDS011;23239;51.504;7.456;2023-05-31T01:39:00;17.2;;;11.6;;
37365;SDS011;23239;51.504;7.456;2023-05-31T01:40:00;17.2;;;11.6;;
37365;SDS011;23239;51.504;7.456;2023-05-31T01:41:00;17.2;;;11.6;;
37365;SDS011;23239;51.504;7.456;2023-05-31T01:42:00;16.8;;;11.7;;
37365;SDS011;23239;51.504;7.456;2023-05-31T01:43:00;16.8;;;11.7;;
37365;SDS011;23239;51.504;7.456;2023-05-31T01:44:00;16.8;;;11.7;;
37365;SDS011;23239;51.504;7.456;2023-05-31T01:45:00;16.8;;;11.7;;
37365;SDS011;23239;51.504;7.456;2023-05-31T01:46:00;16.8;;;11.7;;
37365;SDS011;23239;51.504;7.456;2023-05-31T01:47:00;13.8;;;11.1;;
37365;SDS011;23239;51.504;7.456;2023-05-31T01:48:01;13.8;;;11.1;;
37365;SDS011;23239;51.504;7.456;2023-05-31T01:49:00;13.8;;;11.1;;
37365;SDS011;23239;51.504;7.456;2023-05-31T01:50:00;13.8;;;11.1;;
37365;SDS011;23239;51.504;7.456;2023-05-31T01:51:00;13.8;;;11.1;;
37365;SDS011;23239;51.504;7.456;2023-05-31T01:52:00;14.7;;;12.1;;
37365;SDS011;23239;51.504;7.456;2023-05-31T01:53:00;14.7;;;12.1;;
37365;SDS011;23239;51.504;7.456;2023-05-31T01:54:00;14.7;;;12.1;;
37365;SDS011;23239;51.504;7.456;2023-05-31T01:55:00;14.7;;;12.1;;
37365;SDS011;23239;51.504;7.456;2023-05-31T01:56:00;14.7;;;12.1;;
37365;SDS011;23239;51.504;7.456;2023-05-31T01:57:01;15.5;;;12.8;;
37365;SDS011;23239;51.504;7.456;2023-05-31T01:58:00;15.5;;;12.8;;
37365;SDS011;23239;51.504;7.456;2023-05-31T01:59:00;15.5;;;12.8;;
37365;SDS011;23239;51.504;7.456;2023-05-31T02:00:00;15.5;;;12.8;;
37365;SDS011;23239;51.504;7.456;2023-05-31T02:01:00;15.5;;;12.8;;
37365;SDS011;23239;51.504;7.456;2023-05-31T02:02:00;17.5;;;12.3;;
37365;SDS011;23239;51.504;7.456;2023-05-31T02:03:00;17.5;;;12.3;;
37365;SDS011;23239;51.504;7.456;2023-05-31T02:04:00;17.5;;;12.3;;
37365;SDS011;23239;51.504;7.456;2023-05-31T02:05:04;17.5;;;12.3;;
37365;SDS011;23239;51.504;7.456;2023-05-31T02:06:00;17.5;;;12.3;;
37365;SDS011;23239;51.504;7.456;2023-05-31T02:07:00;14.3;;;11.5;;
37365;SDS011;23239;51.504;7.456;2023-05-31T02:08:00;14.3;;;11.5;;
37365;SDS011;23239;51.504;7.456;2023-05-31T02:09:00;14.3;;;11.5;;
37365;SDS011;23239;51.504;7.456;2023-05-31T02:10:00;14.3;;;11.5;;
37365;SDS011;23239;51.504;7.456;2023-05-31T02:11:00;14.3;;;11.5;;
37365;SDS011;23239;51.504;7.456;2023-05-31T02:12:00;13.8;;;11.4;;
37365;SDS011;23239;51.504;7.456;2023-05-31T02:13:00;13.8;;;11.4;;
37365;SDS011;23239;51.504;7.456;2023-05-31T02:14:00;13.8;;;11.4;;
37365;SDS011;23239;51.504;7.456;2023-05-31T02:15:00;13.8;;;11.4;;
37365;SDS011;23239;51.504;7.456;2023-05-31T02:16:00;13.8;;;11.4;;
37365;SDS011;23239;51.504;7.456;2023-05-31T02:17:00;16.7;;;11.9;;
37365;SDS011;23239;51.504;7.456;2023-05-31T02:18:00;16.7;;;11.9;;
37365;SDS011;23239;51.504;7.456;2023-05-31T02:19:00;16.7;;;11.9;;
37365;SDS011;23239;51.504;7.456;2023-05-31T02:20:00;16.7;;;11.9;;
37365;SDS011;23239;51.504;7.456;2023-05-31T02:21:00;16.7;;;11.9;;
37365;SDS011;23239;51.504;7.456;2023-05-31T02:22:00;14.5;;;11.7;;
37365;SDS011;23239;51.504;7.456;2023-05-31T02:23:00;14.5;;;11.7;;
37365;SDS011;23239;51.504;7.456;2023-05-31T02:24:00;14.5;;;11.7;;
37365;SDS011;23239;51.504;7.456;2023-05-31T02:25:00;14.5;;;11.7;;
37365;SDS011;23239;51.504;7.456;2023-05-31T02:26:00;14.5;;;11.7;;
37365;SDS011;23239;51.504;7.456;2023-05-31T02:27:00;14.9;;;11.6;;
37365;SDS011;23239;51.504;7.456;2023-05-31T02:28:00;14.9;;;11.6;;
37365;SDS011;23239;51.504;7.456;2023-05-31T02:29:00;14.9;;;11.6;;
37365;SDS011;23239;51.504;7.456;2023-05-31T02:30:00;14.9;;;11.6;;
37365;SDS011;23239;51.504;7.456;2023-05-31T02:31:00;14.9;;;11.6;;
37365;SDS011;23239;51.504;7.456;2023-05-31T02:32:00;15.3;;;11.0;;
37365;SDS011;23239;51.504;7.456;2023-05-31T02:33:00;15.3;;;11.0;;
37365;SDS011;23239;51.504;7.456;2023-05-31T02:34:00;15.3;;;11.0;;
37365;SDS011;23239;51.504;7.456;2023-05-31T02:35:00;15.3;;;11.0;;
37365;SDS011;23239;51.504;7.456;2023-05-31T02:36:00;15.3;;;11.0;;
37365;SDS011;23239;51.504;7.456;2023-05-31T02:37:00;12.8;;;10.5;;
37365;SDS011;23239;51.504;7.456;2023-05-31T02:38:00;12.8;;;10.5;;
37365;SDS011;23239;51.504;7.456;2023-05-31T02:39:00;12.8;;;10.5;;
37365;SDS011;23239;51.504;7.456;2023-05-31T02:40:00;12.8;;;10.5;;
37365;SDS011;23239;51.504;7.456;2023-05-31T02:41:00;12.8;;;10.5;;
37365;SDS011;23239;51.504;7.456;2023-05-31T02:42:00;12.4;;;10.6;;
37365;SDS011;23239;51.504;7.456;2023-05-31T02:43:00;12.4;;;10.6;;
37365;SDS011;23239;51.504;7.456;2023-05-31T02:44:00;12.4;;;10.6;;
37365;SDS011;23239;51.504;7.456;2023-05-31T02:45:00;12.4;;;10.6;;
37365;SDS011;23239;51.504;7.456;2023-05-31T02:46:00;12.4;;;10.6;;
37365;SDS011;23239;51.504;7.456;2023-05-31T02:47:00;12.3;;;9.5;;
37365;SDS011;23239;51.504;7.456;2023-05-31T02:48:00;12.3;;;9.5;;
37365;SDS011;23239;51.504;7.456;2023-05-31T02:49:00;12.3;;;9.5;;
37365;SDS011;23239;51.504;7.456;2023-05-31T02:50:00;12.3;;;9.5;;
37365;SDS011;23239;51.504;7.456;2023-05-31T02:51:00;12.3;;;9.5;;
37365;SDS011;23239;51.504;7.456;2023-05-31T02:52:00;12.5;;;9.8;;
37365;SDS011;23239;51.504;7.456;2023-05-31T02:53:00;12.5;;;9.8;;
37365;SDS011;23239;51.504;7.456;2023-05-31T02:54:00;12.5;;;9.8;;
37365;SDS011;23239;51.504;7.456;2023-05-31T02:55:00;12.5;;;9.8;;
37365;SDS011;23239;51.504;7.456;2023-05-31T02:56:00;12.5;;;9.8;;
37365;SDS011;23239;51.504;7.456;2023-05-31T02:57:00;12.0;;;10.2;;
37365;SDS011;23239;51.504;7.456;2023-05-31T02:58:00;12.0;;;10.2;;
37365;SDS011;23239;51.504;7.456;2023-05-31T02:59:00;12.0;;;10.2;;
37365;SDS011;23239;51.504;7.456;2023-05-31T03:00:01;12.0;;;10.2;;
37365;SDS011;23239;51.504;7.456;2023-05-31T03:01:00;12.0;;;10.2;;
37365;SDS011;23239;51.504;7.456;2023-05-31T03:02:00;12.5;;;9.8;;
37365;SDS011;23239;51.504;7.456;2023-05-31T03:03:00;12.5;;;9.8;;
37365;SDS011;23239;51.504;7.456;2023-05-31T03:04:00;12.5;;;9.8;;
37365;SDS011;23239;51.504;7.456;2023-05-31T03:05:00;12.5;;;9.8;;
37365;SDS011;23239;51.504;7.456;2023-05-31T03:06:00;12.5;;;9.8;;
37365;SDS011;23239;51.504;7.456;2023-05-31T03:07:00;12.5;;;9.8;;
37365;SDS011;23239;51.504;7.456;2023-05-31T03:08:00;12.5;;;9.8;;
37365;SDS011;23239;51.504;7.456;2023-05-31T03:09:00;12.5;;;9.8;;
37365;SDS011;23239;51.504;7.456;2023-05-31T03:10:00;12.5;;;9.8;;
37365;SDS011;23239;51.504;7.456;2023-05-31T03:11:00;12.5;;;9.8;;
37365;SDS011;23239;51.504;7.456;2023-05-31T03:12:00;14.8;;;9.9;;
37365;SDS011;23239;51.504;7.456;2023-05-31T03:13:00;14.8;;;9.9;;
37365;SDS011;23239;51.504;7.456;2023-05-31T03:14:00;14.8;;;9.9;;
37365;SDS011;23239;51.504;7.456;2023-05-31T03:15:00;14.8;;;9.9;;
37365;SDS011;23239;51.504;7.456;2023-05-31T03:16:00;14.8;;;9.9;;
37365;SDS011;23239;51.504;7.456;2023-05-31T03:17:00;12.4;;;9.6;;
37365;SDS011;23239;51.504;7.456;2023-05-31T03:18:00;12.4;;;9.6;;
37365;SDS011;23239;51.504;7.456;2023-05-31T03:19:00;12.4;;;9.6;;
37365;SDS011;23239;51.504;7.456;2023-05-31T03:20:00;12.4;;;9.6;;
37365;SDS011;23239;51.504;7.456;2023-05-31T03:21:00;12.4;;;9.6;;
37365;SDS011;23239;51.504;7.456;2023-05-31T03:22:00;11.7;;;9.8;;
37365;SDS011;23239;51.504;7.456;2023-05-31T03:23:00;11.7;;;9.8;;
37365;SDS011;23239;51.504;7.456;2023-05-31T03:24:00;11.7;;;9.8;;
37365;SDS011;23239;51.504;7.456;2023-05-31T03:25:00;11.7;;;9.8;;
37365;SDS011;23239;51.504;7.456;2023-05-31T03:26:00;11.7;;;9.8;;
37365;SDS011;23239;51.504;7.456;2023-05-31T03:27:00;14.2;;;9.7;;
37365;SDS011;23239;51.504;7.456;2023-05-31T03:28:00;14.2;;;9.7;;
37365;SDS011;23239;51.504;7.456;2023-05-31T03:29:00;14.2;;;9.7;;
37365;SDS011;23239;51.504;7.456;2023-05-31T03:30:00;14.2;;;9.7;;
37365;SDS011;23239;51.504;7.456;2023-05-31T03:31:00;14.2;;;9.7;;
37365;SDS011;23239;51.504;7.456;2023-05-31T03:32:00;14.5;;;11.2;;
37365;SDS011;23239;51.504;7.456;2023-05-31T03:33:00;14.5;;;11.2;;
37365;SDS011;23239;51.504;7.456;2023-05-31T03:34:00;14.5;;;11.2;;
37365;SDS011;23239;51.504;7.456;2023-05-31T03:35:00;14.5;;;11.2;;
37365;SDS011;23239;51.504;7.456;2023-05-31T03:36:00;14.5;;;11.2;;
37365;SDS011;23239;51.504;7.456;2023-05-31T03:37:00;11.9;;;10.5;;
37365;SDS011;23239;51.504;7.456;2023-05-31T03:38:00;11.9;;;10.5;;
37365;SDS011;23239;51.504;7.456;2023-05-31T03:39:00;11.9;;;10.5;;
37365;SDS011;23239;51.504;7.456;2023-05-31T03:40:00;11.9;;;10.5;;
37365;SDS011;23239;51.504;7.456;2023-05-31T03:41:00;11.9;;;10.5;;
37365;SDS011;23239;51.504;7.456;2023-05-31T03:42:00;13.9;;;11.7;;
37365;SDS011;23239;51.504;7.456;2023-05-31T03:43:00;13.9;;;11.7;;
37365;SDS011;23239;51.504;7.456;2023-05-31T03:44:00;13.9;;;11.7;;
37365;SDS011;23239;51.504;7.456;2023-05-31T03:45:00;13.9;;;11.7;;
37365;SDS011;23239;51.504;7.456;2023-05-31T03:46:00;13.9;;;11.7;;
37365;SDS011;23239;51.504;7.456;2023-05-31T03:47:00;13.5;;;10.8;;
37365;SDS011;23239;51.504;7.456;2023-05-31T03:48:00;13.5;;;10.8;;
37365;SDS011;23239;51.504;7.456;2023-05-31T03:49:00;13.5;;;10.8;;
37365;SDS011;23239;51.504;7.456;2023-05-31T03:50:00;13.5;;;10.8;;
37365;SDS011;23239;51.504;7.456;2023-05-31T03:51:00;13.5;;;10.8;;
37365;SDS011;23239;51.504;7.456;2023-05-31T03:52:00;15.4;;;11.8;;
37365;SDS011;23239;51.504;7.456;2023-05-31T03:53:00;15.4;;;11.8;;
37365;SDS011;23239;51.504;7.456;2023-05-31T03:54:00;15.4;;;11.8;;
37365;SDS011;23239;51.504;7.456;2023-05-31T03:55:00;15.4;;;11.8;;
37365;SDS011;23239;51.504;7.456;2023-05-31T03:56:00;15.4;;;11.8;;
37365;SDS011;23239;51.504;7.456;2023-05-31T03:57:00;15.1;;;11.0;;
37365;SDS011;23239;51.504;7.456;2023-05-31T03:58:00;15.1;;;11.0;;
37365;SDS011;23239;51.504;7.456;2023-05-31T03:59:00;15.1;;;11.0;;
37365;SDS011;23239;51.504;7.456;2023-05-31T04:00:00;15.1;;;11.0;;
37365;SDS011;23239;51.504;7.456;2023-05-31T04:01:00;15.1;;;11.0;;
37365;SDS011;23239;51.504;7.456;2023-05-31T04:02:00;13.9;;;11.2;;
37365;SDS011;23239;51.504;7.456;2023-05-31T04:03:00;13.9;;;11.2;;
37365;SDS011;23239;51.504;7.456;2023-05-31T04:04:00;13.9;;;11.2;;
37365;SDS011;23239;51.504;7.456;2023-05-31T04:05:00;13.9;;;11.2;;
37365;SDS011;23239;51.504;7.456;2023-05-31T04:06:00;13.9;;;11.2;;
37365;SDS011;23239;51.504;7.456;2023-05-31T04:07:00;14.7;;;11.0;;
37365;SDS011;23239;51.504;7.456;2023-05-31T04:08:00;14.7;;;11.0;;
37365;SDS011;23239;51.504;7.456;2023-05-31T04:09:00;14.7;;;11.0;;
37365;SDS011;23239;51.504;7.456;2023-05-31T04:10:00;14.7;;;11.0;;
37365;SDS011;23239;51.504;7.456;2023-05-31T04:11:00;14.7;;;11.0;;
37365;SDS011;23239;51.504;7.456;2023-05-31T04:12:00;14.3;;;11.4;;
37365;SDS011;23239;51.504;7.456;2023-05-31T04:13:00;14.3;;;11.4;;
37365;SDS011;23239;51.504;7.456;2023-05-31T04:14:00;14.3;;;11.4;;
37365;SDS011;23239;51.504;7.456;2023-05-31T04:15:00;14.3;;;11.4;;
37365;SDS011;23239;51.504;7.456;2023-05-31T04:16:00;14.3;;;11.4;;
37365;SDS011;23239;51.504;7.456;2023-05-31T04:17:00;14.5;;;11.6;;
37365;SDS011;23239;51.504;7.456;2023-05-31T04:18:00;14.5;;;11.6;;
37365;SDS011;23239;51.504;7.456;2023-05-31T04:19:00;14.5;;;11.6;;
37365;SDS011;23239;51.504;7.456;2023-05-31T04:20:00;14.5;;;11.6;;
37365;SDS011;23239;51.504;7.456;2023-05-31T04:21:00;14.5;;;11.6;;
37365;SDS011;23239;51.504;7.456;2023-05-31T04:22:00;14.5;;;11.8;;
37365;SDS011;23239;51.504;7.456;2023-05-31T04:23:00;14.5;;;11.8;;
37365;SDS011;23239;51.504;7.456;2023-05-31T04:24:00;14.5;;;11.8;;
37365;SDS011;23239;51.504;7.456;2023-05-31T04:25:00;14.5;;;11.8;;
37365;SDS011;23239;51.504;7.456;2023-05-31T04:26:00;14.5;;;11.8;;
37365;SDS011;23239;51.504;7.456;2023-05-31T04:27:00;15.4;;;11.3;;
37365;SDS011;23239;51.504;7.456;2023-05-31T04:28:00;15.4;;;11.3;;
37365;SDS011;23239;51.504;7.456;2023-05-31T04:29:00;15.4;;;11.3;;
37365;SDS011;23239;51.504;7.456;2023-05-31T04:30:00;15.4;;;11.3;;
37365;SDS011;23239;51.504;7.456;2023-05-31T04:31:00;15.4;;;11.3;;
37365;SDS011;23239;51.504;7.456;2023-05-31T04:32:00;16.7;;;12.4;;
37365;SDS011;23239;51.504;7.456;2023-05-31T04:33:00;16.7;;;12.4;;
37365;SDS011;23239;51.504;7.456;2023-05-31T04:34:00;16.7;;;12.4;;
37365;SDS011;23239;51.504;7.456;2023-05-31T04:35:00;16.7;;;12.4;;
37365;SDS011;23239;51.504;7.456;2023-05-31T04:36:00;16.7;;;12.4;;
37365;SDS011;23239;51.504;7.456;2023-05-31T04:37:00;15.6;;;12.0;;
37365;SDS011;23239;51.504;7.456;2023-05-31T04:38:00;15.6;;;12.0;;
37365;SDS011;23239;51.504;7.456;2023-05-31T04:39:00;15.6;;;12.0;;
37365;SDS011;23239;51.504;7.456;2023-05-31T04:40:00;15.6;;;12.0;;
37365;SDS011;23239;51.504;7.456;2023-05-31T04:41:00;15.6;;;12.0;;
37365;SDS011;23239;51.504;7.456;2023-05-31T04:42:00;13.6;;;12.0;;
37365;SDS011;23239;51.504;7.456;2023-05-31T04:43:00;13.6;;;12.0;;
37365;SDS011;23239;51.504;7.456;2023-05-31T04:44:00;13.6;;;12.0;;
37365;SDS011;23239;51.504;7.456;2023-05-31T04:45:00;13.6;;;12.0;;
37365;SDS011;23239;51.504;7.456;2023-05-31T04:46:00;13.6;;;12.0;;
37365;SDS011;23239;51.504;7.456;2023-05-31T04:47:00;15.6;;;12.8;;
37365;SDS011;23239;51.504;7.456;2023-05-31T04:48:00;15.6;;;12.8;;
37365;SDS011;23239;51.504;7.456;2023-05-31T04:49:00;15.6;;;12.8;;
37365;SDS011;23239;51.504;7.456;2023-05-31T04:50:00;15.6;;;12.8;;
37365;SDS011;23239;51.504;7.456;2023-05-31T04:51:00;15.6;;;12.8;;
37365;SDS011;23239;51.504;7.456;2023-05-31T04:52:00;16.8;;;12.5;;
37365;SDS011;23239;51.504;7.456;2023-05-31T04:53:00;16.8;;;12.5;;
37365;SDS011;23239;51.504;7.456;2023-05-31T04:54:00;16.8;;;12.5;;
37365;SDS011;23239;51.504;7.456;2023-05-31T04:55:00;16.8;;;12.5;;
37365;SDS011;23239;51.504;7.456;2023-05-31T04:56:00;16.8;;;12.5;;
37365;SDS011;23239;51.504;7.456;2023-05-31T04:57:00;16.2;;;11.8;;
37365;SDS011;23239;51.504;7.456;2023-05-31T04:58:00;16.2;;;11.8;;
37365;SDS011;23239;51.504;7.456;2023-05-31T04:59:00;16.2;;;11.8;;
37365;SDS011;23239;51.504;7.456;2023-05-31T05:00:00;16.2;;;11.8;;
37365;SDS011;23239;51.504;7.456;2023-05-31T05:01:00;16.2;;;11.8;;
37365;SDS011;23239;51.504;7.456;2023-05-31T05:02:00;15.7;;;12.2;;
37365;SDS011;23239;51.504;7.456;2023-05-31T05:03:00;15.7;;;12.2;;
37365;SDS011;23239;51.504;7.456;2023-05-31T05:04:00;15.7;;;12.2;;
37365;SDS011;23239;51.504;7.456;2023-05-31T05:05:00;15.7;;;12.2;;
37365;SDS011;23239;51.504;7.456;2023-05-31T05:06:00;15.7;;;12.2;;
37365;SDS011;23239;51.504;7.456;2023-05-31T05:07:00;19.8;;;12.6;;
37365;SDS011;23239;51.504;7.456;2023-05-31T05:08:00;19.8;;;12.6;;
37365;SDS011;23239;51.504;7.456;2023-05-31T05:09:00;19.8;;;12.6;;
37365;SDS011;23239;51.504;7.456;2023-05-31T05:10:00;19.8;;;12.6;;
37365;SDS011;23239;51.504;7.456;2023-05-31T05:11:00;19.8;;;12.6;;
37365;SDS011;23239;51.504;7.456;2023-05-31T05:12:00;15.3;;;11.5;;
37365;SDS011;23239;51.504;7.456;2023-05-31T05:13:00;15.3;;;11.5;;
37365;SDS011;23239;51.504;7.456;2023-05-31T05:14:00;15.3;;;11.5;;
37365;SDS011;23239;51.504;7.456;2023-05-31T05:15:00;15.3;;;11.5;;
37365;SDS011;23239;51.504;7.456;2023-05-31T05:16:00;15.3;;;11.5;;
37365;SDS011;23239;51.504;7.456;2023-05-31T05:17:00;15.0;;;10.9;;
37365;SDS011;23239;51.504;7.456;2023-05-31T05:18:00;15.0;;;10.9;;
37365;SDS011;23239;51.504;7.456;2023-05-31T05:19:00;15.0;;;10.9;;
37365;SDS011;23239;51.504;7.456;2023-05-31T05:20:00;15.0;;;10.9;;
37365;SDS011;23239;51.504;7.456;2023-05-31T05:21:00;15.0;;;10.9;;
37365;SDS011;23239;51.504;7.456;2023-05-31T05:22:00;15.9;;;11.1;;
37365;SDS011;23239;51.504;7.456;2023-05-31T05:23:00;15.9;;;11.1;;
37365;SDS011;23239;51.504;7.456;2023-05-31T05:24:00;15.9;;;11.1;;
37365;SDS011;23239;51.504;7.456;2023-05-31T05:25:00;15.9;;;11.1;;
37365;SDS011;23239;51.504;7.456;2023-05-31T05:26:00;15.9;;;11.1;;
37365;SDS011;23239;51.504;7.456;2023-05-31T05:27:00;13.8;;;11.0;;
37365;SDS011;23239;51.504;7.456;2023-05-31T05:28:00;13.8;;;11.0;;
37365;SDS011;23239;51.504;7.456;2023-05-31T05:29:00;13.8;;;11.0;;
37365;SDS011;23239;51.504;7.456;2023-05-31T05:30:00;13.8;;;11.0;;
37365;SDS011;23239;51.504;7.456;2023-05-31T05:31:00;13.8;;;11.0;;
37365;SDS011;23239;51.504;7.456;2023-05-31T05:32:00;16.6;;;11.5;;
37365;SDS011;23239;51.504;7.456;2023-05-31T05:33:00;16.6;;;11.5;;
37365;SDS011;23239;51.504;7.456;2023-05-31T05:34:00;16.6;;;11.5;;
37365;SDS011;23239;51.504;7.456;2023-05-31T05:35:00;16.6;;;11.5;;
37365;SDS011;23239;51.504;7.456;2023-05-31T05:36:00;16.6;;;11.5;;
37365;SDS011;23239;51.504;7.456;2023-05-31T05:37:00;15.2;;;10.6;;
37365;SDS011;23239;51.504;7.456;2023-05-31T05:38:00;15.2;;;10.6;;
37365;SDS011;23239;51.504;7.456;2023-05-31T05:39:00;15.2;;;10.6;;
37365;SDS011;23239;51.504;7.456;2023-05-31T05:40:00;15.2;;;10.6;;
37365;SDS011;23239;51.504;7.456;2023-05-31T05:41:00;15.2;;;10.6;;
37365;SDS011;23239;51.504;7.456;2023-05-31T05:42:00;15.5;;;11.2;;
37365;SDS011;23239;51.504;7.456;2023-05-31T05:43:00;15.5;;;11.2;;
37365;SDS011;23239;51.504;7.456;2023-05-31T05:44:00;15.5;;;11.2;;
37365;SDS011;23239;51.504;7.456;2023-05-31T05:45:00;15.5;;;11.2;;
37365;SDS011;23239;51.504;7.456;2023-05-31T05:46:00;15.5;;;11.2;;
37365;SDS011;23239;51.504;7.456;2023-05-31T05:47:00;14.6;;;11.4;;
37365;SDS011;23239;51.504;7.456;2023-05-31T05:48:00;14.6;;;11.4;;
37365;SDS011;23239;51.504;7.456;2023-05-31T05:49:00;14.6;;;11.4;;
37365;SDS011;23239;51.504;7.456;2023-05-31T05:50:00;14.6;;;11.4;;
37365;SDS011;23239;51.504;7.456;2023-05-31T05:51:00;14.6;;;11.4;;
37365;SDS011;23239;51.504;7.456;2023-05-31T05:52:00;14.6;;;11.1;;
37365;SDS011;23239;51.504;7.456;2023-05-31T05:53:00;14.6;;;11.1;;
37365;SDS011;23239;51.504;7.456;2023-05-31T05:54:00;14.6;;;11.1;;
37365;SDS011;23239;51.504;7.456;2023-05-31T05:55:00;14.6;;;11.1;;
37365;SDS011;23239;51.504;7.456;2023-05-31T05:56:00;14.6;;;11.1;;
37365;SDS011;23239;51.504;7.456;2023-05-31T05:57:00;14.8;;;10.8;;
37365;SDS011;23239;51.504;7.456;2023-05-31T05:58:00;14.8;;;10.8;;
37365;SDS011;23239;51.504;7.456;2023-05-31T05:59:00;14.8;;;10.8;;
37365;SDS011;23239;51.504;7.456;2023-05-31T06:00:00;14.8;;;10.8;;
37365;SDS011;23239;51.504;7.456;2023-05-31T06:01:00;14.8;;;10.8;;